sensor_id;sensor_type;location;lat;lon;timestamp;pressure;altitude;pressure_sealevel;temperature;humidity
39105;BME280;46464;51.154;13.812;2023-04-24T00:00:32;52157.31;;;-146.96;83.10
39105;BME280;46464;51.154;13.812;2023-04-24T00:02:58;52106.44;;;-146.96;83.24
39105;BME280;46464;51.154;13.812;2023-04-24T00:05:25;52183.75;;;-146.96;83.65
39105;BME280;46464;51.154;13.812;2023-04-24T00:07:51;52171.56;;;-146.96;83.62
39105;BME280;46464;51.154;13.812;2023-04-24T00:10:18;52141.03;;;-146.96;83.81
39105;BME280;46464;51.154;13.812;2023-04-24T00:12:45;52145.09;;;-146.96;84.09
39105;BME280;46464;51.154;13.812;2023-04-24T00:15:11;52141.03;;;-146.96;84.51
39105;BME280;46464;51.154;13.812;2023-04-24T00:17:38;52134.94;;;-146.96;84.53
39105;BME280;46464;51.154;13.812;2023-04-24T00:20:05;52147.13;;;-146.96;84.14
39105;BME280;46464;51.154;13.812;2023-04-24T00:22:33;52086.09;;;-146.96;84.28
39105;BME280;46464;51.154;13.812;2023-04-24T00:24:59;52153.25;;;-146.96;84.15
39105;BME280;46464;51.154;13.812;2023-04-24T00:27:26;52120.69;;;-146.96;84.79
39105;BME280;46464;51.154;13.812;2023-04-24T00:29:52;52145.09;;;-146.96;84.44
39105;BME280;46464;51.154;13.812;2023-04-24T00:32:18;52122.72;;;-146.96;84.56
39105;BME280;46464;51.154;13.812;2023-04-24T00:34:45;52114.59;;;-146.96;84.21
39105;BME280;46464;51.154;13.812;2023-04-24T00:37:12;52145.09;;;-146.96;84.15
39105;BME280;46464;51.154;13.812;2023-04-24T00:39:38;52136.97;;;-146.96;84.17
39105;BME280;46464;51.154;13.812;2023-04-24T00:42:05;52112.56;;;-146.96;83.89
39105;BME280;46464;51.154;13.812;2023-04-24T00:44:33;52116.63;;;-146.96;84.29
39105;BME280;46464;51.154;13.812;2023-04-24T00:47:01;52118.66;;;-146.96;84.31
39105;BME280;46464;51.154;13.812;2023-04-24T00:49:27;52151.22;;;-146.96;84.04
39105;BME280;46464;51.154;13.812;2023-04-24T00:51:54;52100.34;;;-146.96;84.03
39105;BME280;46464;51.154;13.812;2023-04-24T00:54:20;52151.22;;;-146.96;83.90
39105;BME280;46464;51.154;13.812;2023-04-24T00:56:47;52104.41;;;-146.96;84.52
39105;BME280;46464;51.154;13.812;2023-04-24T00:59:16;52124.75;;;-146.96;85.60
39105;BME280;46464;51.154;13.812;2023-04-24T01:01:44;52136.97;;;-146.96;84.95
39105;BME280;46464;51.154;13.812;2023-04-24T01:04:12;52161.38;;;-146.96;84.66
39105;BME280;46464;51.154;13.812;2023-04-24T01:06:39;52151.22;;;-146.96;84.50
39105;BME280;46464;51.154;13.812;2023-04-24T01:09:06;52110.53;;;-146.96;84.17
39105;BME280;46464;51.154;13.812;2023-04-24T01:11:36;52120.69;;;-146.96;83.93
39105;BME280;46464;51.154;13.812;2023-04-24T01:14:03;52118.66;;;-146.96;84.49
39105;BME280;46464;51.154;13.812;2023-04-24T01:16:30;52157.31;;;-146.96;84.55
39105;BME280;46464;51.154;13.812;2023-04-24T01:18:56;52122.72;;;-146.96;84.63
39105;BME280;46464;51.154;13.812;2023-04-24T01:21:25;52122.72;;;-146.96;84.77
39105;BME280;46464;51.154;13.812;2023-04-24T01:23:54;52143.06;;;-146.96;84.58
39105;BME280;46464;51.154;13.812;2023-04-24T01:26:22;52149.19;;;-146.96;84.50
39105;BME280;46464;51.154;13.812;2023-04-24T01:28:49;52153.25;;;-146.96;84.71
39105;BME280;46464;51.154;13.812;2023-04-24T01:31:15;52128.81;;;-146.96;84.58
39105;BME280;46464;51.154;13.812;2023-04-24T01:33:42;52118.66;;;-146.96;84.47
39105;BME280;46464;51.154;13.812;2023-04-24T01:36:10;52141.03;;;-146.96;84.49
39105;BME280;46464;51.154;13.812;2023-04-24T01:38:37;52139.00;;;-146.96;84.44
39105;BME280;46464;51.154;13.812;2023-04-24T01:41:04;52136.97;;;-146.96;84.16
39105;BME280;46464;51.154;13.812;2023-04-24T01:43:31;52128.81;;;-146.96;84.33
39105;BME280;46464;51.154;13.812;2023-04-24T01:45:58;52134.94;;;-146.96;84.17
39105;BME280;46464;51.154;13.812;2023-04-24T01:48:24;52155.28;;;-146.96;84.23
39105;BME280;46464;51.154;13.812;2023-04-24T01:50:51;52151.22;;;-146.96;83.83
39105;BME280;46464;51.154;13.812;2023-04-24T01:53:18;52139.00;;;-146.96;84.20
39105;BME280;46464;51.154;13.812;2023-04-24T01:55:44;52163.41;;;-146.96;84.00
39105;BME280;46464;51.154;13.812;2023-04-24T01:58:11;52132.91;;;-146.96;84.67
39105;BME280;46464;51.154;13.812;2023-04-24T02:00:38;52134.94;;;-146.96;84.50
39105;BME280;46464;51.154;13.812;2023-04-24T02:03:04;52159.34;;;-146.96;84.47
39105;BME280;46464;51.154;13.812;2023-04-24T02:05:31;52110.53;;;-146.96;84.72
39105;BME280;46464;51.154;13.812;2023-04-24T02:07:57;52112.56;;;-146.96;83.76
39105;BME280;46464;51.154;13.812;2023-04-24T02:10:24;52134.94;;;-146.96;83.48
39105;BME280;46464;51.154;13.812;2023-04-24T02:12:51;52130.88;;;-146.96;83.49
39105;BME280;46464;51.154;13.812;2023-04-24T02:15:18;52112.56;;;-146.96;82.44
39105;BME280;46464;51.154;13.812;2023-04-24T02:17:44;52086.09;;;-146.96;81.83
39105;BME280;46464;51.154;13.812;2023-04-24T02:20:11;52100.34;;;-146.96;81.10
39105;BME280;46464;51.154;13.812;2023-04-24T02:22:37;52094.25;;;-146.96;80.23
39105;BME280;46464;51.154;13.812;2023-04-24T02:25:04;52128.81;;;-146.96;79.08
39105;BME280;46464;51.154;13.812;2023-04-24T02:27:31;52104.41;;;-146.96;77.80
39105;BME280;46464;51.154;13.812;2023-04-24T02:29:57;52120.69;;;-146.96;77.45
39105;BME280;46464;51.154;13.812;2023-04-24T02:32:24;52080.00;;;-146.96;77.21
39105;BME280;46464;51.154;13.812;2023-04-24T02:34:50;52110.53;;;-146.96;76.86
39105;BME280;46464;51.154;13.812;2023-04-24T02:37:17;52088.13;;;-146.96;76.53
39105;BME280;46464;51.154;13.812;2023-04-24T02:39:43;52055.59;;;-146.96;76.23
39105;BME280;46464;51.154;13.812;2023-04-24T02:42:10;52116.63;;;-146.96;76.90
39105;BME280;46464;51.154;13.812;2023-04-24T02:44:36;52098.31;;;-146.96;76.97
39105;BME280;46464;51.154;13.812;2023-04-24T02:47:03;52088.13;;;-146.96;77.57
39105;BME280;46464;51.154;13.812;2023-04-24T02:49:29;52092.22;;;-146.96;78.10
39105;BME280;46464;51.154;13.812;2023-04-24T02:51:56;52104.41;;;-146.96;78.20
39105;BME280;46464;51.154;13.812;2023-04-24T02:54:22;52120.69;;;-146.96;77.38
39105;BME280;46464;51.154;13.812;2023-04-24T02:56:49;52110.53;;;-146.96;77.02
39105;BME280;46464;51.154;13.812;2023-04-24T02:59:16;52075.94;;;-146.96;76.26
39105;BME280;46464;51.154;13.812;2023-04-24T03:01:42;52098.31;;;-146.96;76.37
39105;BME280;46464;51.154;13.812;2023-04-24T03:04:09;52055.59;;;-146.96;75.73
39105;BME280;46464;51.154;13.812;2023-04-24T03:06:36;52071.84;;;-146.96;75.58
39105;BME280;46464;51.154;13.812;2023-04-24T03:09:03;52094.25;;;-146.96;75.86
39105;BME280;46464;51.154;13.812;2023-04-24T03:11:29;52118.66;;;-146.96;76.13
39105;BME280;46464;51.154;13.812;2023-04-24T03:13:56;52096.28;;;-146.96;76.38
39105;BME280;46464;51.154;13.812;2023-04-24T03:16:22;52098.31;;;-146.96;76.15
39105;BME280;46464;51.154;13.812;2023-04-24T03:18:49;52067.78;;;-146.96;76.60
39105;BME280;46464;51.154;13.812;2023-04-24T03:21:15;52092.22;;;-146.96;76.36
39105;BME280;46464;51.154;13.812;2023-04-24T03:23:42;52082.03;;;-146.96;76.20
39105;BME280;46464;51.154;13.812;2023-04-24T03:26:08;52092.22;;;-146.96;75.83
39105;BME280;46464;51.154;13.812;2023-04-24T03:28:35;52116.63;;;-146.96;76.24
39105;BME280;46464;51.154;13.812;2023-04-24T03:31:02;52118.66;;;-146.96;76.24
39105;BME280;46464;51.154;13.812;2023-04-24T03:33:29;52086.09;;;-146.96;76.14
39105;BME280;46464;51.154;13.812;2023-04-24T03:35:56;52114.59;;;-146.96;75.77
39105;BME280;46464;51.154;13.812;2023-04-24T03:38:22;52100.34;;;-146.96;76.08
39105;BME280;46464;51.154;13.812;2023-04-24T03:40:49;52096.28;;;-146.96;74.78
39105;BME280;46464;51.154;13.812;2023-04-24T03:43:15;52147.13;;;-146.96;75.30
39105;BME280;46464;51.154;13.812;2023-04-24T03:45:42;52086.09;;;-146.96;74.98
39105;BME280;46464;51.154;13.812;2023-04-24T03:48:08;52100.34;;;-146.96;75.10
39105;BME280;46464;51.154;13.812;2023-04-24T03:50:35;52124.75;;;-146.96;74.42
39105;BME280;46464;51.154;13.812;2023-04-24T03:53:01;52080.00;;;-146.96;74.11
39105;BME280;46464;51.154;13.812;2023-04-24T03:55:28;52096.28;;;-146.96;74.28
39105;BME280;46464;51.154;13.812;2023-04-24T03:57:54;52102.38;;;-146.96;74.33
39105;BME280;46464;51.154;13.812;2023-04-24T04:00:21;52112.56;;;-146.96;74.27
39105;BME280;46464;51.154;13.812;2023-04-24T04:02:47;52116.63;;;-146.96;74.11
39105;BME280;46464;51.154;13.812;2023-04-24T04:05:14;52080.00;;;-146.96;73.94
39105;BME280;46464;51.154;13.812;2023-04-24T04:07:40;52082.03;;;-146.96;73.27
39105;BME280;46464;51.154;13.812;2023-04-24T04:10:07;52126.78;;;-146.96;73.42
39105;BME280;46464;51.154;13.812;2023-04-24T04:12:33;52149.19;;;-146.96;73.93
39105;BME280;46464;51.154;13.812;2023-04-24T04:15:00;52114.59;;;-146.96;72.89
39105;BME280;46464;51.154;13.812;2023-04-24T04:17:27;52110.53;;;-146.96;72.86
39105;BME280;46464;51.154;13.812;2023-04-24T04:19:53;52106.44;;;-146.96;72.52
39105;BME280;46464;51.154;13.812;2023-04-24T04:22:20;52065.75;;;-146.96;72.78
39105;BME280;46464;51.154;13.812;2023-04-24T04:24:46;52086.09;;;-146.96;72.08
39105;BME280;46464;51.154;13.812;2023-04-24T04:27:13;52088.13;;;-146.96;71.35
39105;BME280;46464;51.154;13.812;2023-04-24T04:29:39;52051.50;;;-146.96;71.25
39105;BME280;46464;51.154;13.812;2023-04-24T04:32:06;52082.03;;;-146.96;71.00
39105;BME280;46464;51.154;13.812;2023-04-24T04:34:33;52088.13;;;-146.96;71.27
39105;BME280;46464;51.154;13.812;2023-04-24T04:37:00;52122.72;;;-146.96;70.89
39105;BME280;46464;51.154;13.812;2023-04-24T04:39:27;52084.06;;;-146.96;70.73
39105;BME280;46464;51.154;13.812;2023-04-24T04:41:54;52088.13;;;-146.96;70.12
39105;BME280;46464;51.154;13.812;2023-04-24T04:44:21;52067.78;;;-146.96;70.20
39105;BME280;46464;51.154;13.812;2023-04-24T04:46:47;52088.13;;;-146.96;70.76
39105;BME280;46464;51.154;13.812;2023-04-24T04:49:14;52157.31;;;-146.96;70.60
39105;BME280;46464;51.154;13.812;2023-04-24T04:51:43;52094.25;;;-146.96;70.58
39105;BME280;46464;51.154;13.812;2023-04-24T04:54:09;52084.06;;;-146.96;71.64
39105;BME280;46464;51.154;13.812;2023-04-24T04:56:35;52114.59;;;-146.96;71.26
39105;BME280;46464;51.154;13.812;2023-04-24T04:59:02;52094.25;;;-146.96;70.80
39105;BME280;46464;51.154;13.812;2023-04-24T05:01:28;52057.63;;;-146.96;70.45
39105;BME280;46464;51.154;13.812;2023-04-24T05:03:55;52102.38;;;-146.96;70.07
39105;BME280;46464;51.154;13.812;2023-04-24T05:06:22;52114.59;;;-146.96;70.30
39105;BME280;46464;51.154;13.812;2023-04-24T05:08:49;52071.84;;;-146.96;69.97
39105;BME280;46464;51.154;13.812;2023-04-24T05:11:17;52069.81;;;-146.96;69.70
39105;BME280;46464;51.154;13.812;2023-04-24T05:13:43;52096.28;;;-146.96;69.61
39105;BME280;46464;51.154;13.812;2023-04-24T05:16:10;52106.44;;;-146.96;69.98
39105;BME280;46464;51.154;13.812;2023-04-24T05:18:36;52080.00;;;-146.96;69.47
39105;BME280;46464;51.154;13.812;2023-04-24T05:21:03;52094.25;;;-146.96;69.55
39105;BME280;46464;51.154;13.812;2023-04-24T05:23:29;52104.41;;;-146.96;69.60
39105;BME280;46464;51.154;13.812;2023-04-24T05:25:56;52077.97;;;-146.96;69.60
39105;BME280;46464;51.154;13.812;2023-04-24T05:28:22;52069.81;;;-146.96;69.22
39105;BME280;46464;51.154;13.812;2023-04-24T05:30:49;52102.38;;;-146.96;69.28
39105;BME280;46464;51.154;13.812;2023-04-24T05:33:16;52096.28;;;-146.96;69.03
39105;BME280;46464;51.154;13.812;2023-04-24T05:35:42;52124.75;;;-146.96;68.75
39105;BME280;46464;51.154;13.812;2023-04-24T05:38:13;52051.50;;;-146.96;68.79
39105;BME280;46464;51.154;13.812;2023-04-24T05:40:39;52045.41;;;-146.96;69.05
39105;BME280;46464;51.154;13.812;2023-04-24T05:43:06;52033.19;;;-146.96;67.80
39105;BME280;46464;51.154;13.812;2023-04-24T05:45:32;52073.91;;;-146.96;68.61
39105;BME280;46464;51.154;13.812;2023-04-24T05:48:02;52077.97;;;-146.96;69.64
39105;BME280;46464;51.154;13.812;2023-04-24T05:50:29;52075.94;;;-146.96;68.40
39105;BME280;46464;51.154;13.812;2023-04-24T05:52:55;52073.91;;;-146.96;67.65
39105;BME280;46464;51.154;13.812;2023-04-24T05:55:25;52069.81;;;-146.96;68.47
39105;BME280;46464;51.154;13.812;2023-04-24T05:57:51;52069.81;;;-146.96;67.74
39105;BME280;46464;51.154;13.812;2023-04-24T06:00:18;52057.63;;;-146.96;68.38
39105;BME280;46464;51.154;13.812;2023-04-24T06:02:46;52059.66;;;-146.96;66.65
39105;BME280;46464;51.154;13.812;2023-04-24T06:05:13;52065.75;;;-146.96;65.62
39105;BME280;46464;51.154;13.812;2023-04-24T06:07:41;52051.50;;;-146.96;65.32
39105;BME280;46464;51.154;13.812;2023-04-24T06:10:08;52037.28;;;-146.96;66.18
39105;BME280;46464;51.154;13.812;2023-04-24T06:12:35;52080.00;;;-146.96;65.17
39105;BME280;46464;51.154;13.812;2023-04-24T06:15:03;52073.91;;;-146.96;65.96
39105;BME280;46464;51.154;13.812;2023-04-24T06:17:30;52063.72;;;-146.96;64.83
39105;BME280;46464;51.154;13.812;2023-04-24T06:19:57;52071.84;;;-146.96;65.06
39105;BME280;46464;51.154;13.812;2023-04-24T06:22:24;52049.47;;;-146.96;66.32
39105;BME280;46464;51.154;13.812;2023-04-24T06:24:50;52082.03;;;-146.96;65.62
39105;BME280;46464;51.154;13.812;2023-04-24T06:27:17;52004.72;;;-146.96;64.07
39105;BME280;46464;51.154;13.812;2023-04-24T06:29:43;52039.31;;;-146.96;63.83
39105;BME280;46464;51.154;13.812;2023-04-24T06:32:10;52047.44;;;-146.96;63.47
39105;BME280;46464;51.154;13.812;2023-04-24T06:34:36;52049.47;;;-146.96;63.66
39105;BME280;46464;51.154;13.812;2023-04-24T06:37:03;52059.66;;;-146.96;62.51
39105;BME280;46464;51.154;13.812;2023-04-24T06:39:29;52041.34;;;-146.96;62.37
39105;BME280;46464;51.154;13.812;2023-04-24T06:41:56;52018.97;;;-146.96;63.00
39105;BME280;46464;51.154;13.812;2023-04-24T06:44:22;52043.38;;;-146.96;63.35
39105;BME280;46464;51.154;13.812;2023-04-24T06:46:49;52029.13;;;-146.96;62.35
39105;BME280;46464;51.154;13.812;2023-04-24T06:49:15;52000.66;;;-146.96;63.08
39105;BME280;46464;51.154;13.812;2023-04-24T06:51:42;52010.81;;;-146.96;62.43
39105;BME280;46464;51.154;13.812;2023-04-24T06:54:09;52012.84;;;-146.96;62.65
39105;BME280;46464;51.154;13.812;2023-04-24T06:56:35;52016.94;;;-146.96;62.82
39105;BME280;46464;51.154;13.812;2023-04-24T06:59:02;52027.09;;;-146.96;61.86
39105;BME280;46464;51.154;13.812;2023-04-24T07:01:28;51998.63;;;-146.96;60.75
39105;BME280;46464;51.154;13.812;2023-04-24T07:03:55;51998.63;;;-146.96;60.66
39105;BME280;46464;51.154;13.812;2023-04-24T07:06:22;51984.38;;;-146.96;60.80
39105;BME280;46464;51.154;13.812;2023-04-24T07:08:49;51988.44;;;-146.96;60.71
39105;BME280;46464;51.154;13.812;2023-04-24T07:11:16;51994.53;;;-146.96;59.43
39105;BME280;46464;51.154;13.812;2023-04-24T07:13:42;51992.50;;;-146.96;59.53
39105;BME280;46464;51.154;13.812;2023-04-24T07:16:10;51988.44;;;-146.96;59.78
39105;BME280;46464;51.154;13.812;2023-04-24T07:18:38;51966.06;;;-146.96;58.67
39105;BME280;46464;51.154;13.812;2023-04-24T07:21:06;51951.81;;;-146.96;58.12
39105;BME280;46464;51.154;13.812;2023-04-24T07:23:33;51949.78;;;-146.96;57.18
39105;BME280;46464;51.154;13.812;2023-04-24T07:25:59;51921.31;;;-146.96;55.24
39105;BME280;46464;51.154;13.812;2023-04-24T07:28:26;51929.44;;;-146.96;54.75
39105;BME280;46464;51.154;13.812;2023-04-24T07:30:53;51923.34;;;-146.96;55.61
39105;BME280;46464;51.154;13.812;2023-04-24T07:33:20;51929.44;;;-146.96;55.02
39105;BME280;46464;51.154;13.812;2023-04-24T07:35:47;51925.38;;;-146.96;56.57
39105;BME280;46464;51.154;13.812;2023-04-24T07:38:13;51939.63;;;-146.96;55.73
39105;BME280;46464;51.154;13.812;2023-04-24T07:40:40;51935.53;;;-146.96;56.20
39105;BME280;46464;51.154;13.812;2023-04-24T07:43:06;51941.66;;;-146.96;56.28
39105;BME280;46464;51.154;13.812;2023-04-24T07:45:33;51939.63;;;-146.96;56.74
39105;BME280;46464;51.154;13.812;2023-04-24T07:48:03;51978.28;;;-146.96;56.23
39105;BME280;46464;51.154;13.812;2023-04-24T07:50:30;51937.56;;;-146.96;57.30
39105;BME280;46464;51.154;13.812;2023-04-24T07:52:57;51998.63;;;-146.96;57.42
39105;BME280;46464;51.154;13.812;2023-04-24T07:55:23;51974.19;;;-146.96;58.00
39105;BME280;46464;51.154;13.812;2023-04-24T07:57:53;51984.38;;;-146.96;57.99
39105;BME280;46464;51.154;13.812;2023-04-24T08:00:20;52010.81;;;-146.96;58.57
39105;BME280;46464;51.154;13.812;2023-04-24T08:02:47;51992.50;;;-146.96;58.60
39105;BME280;46464;51.154;13.812;2023-04-24T08:05:14;51984.38;;;-146.96;59.50
39105;BME280;46464;51.154;13.812;2023-04-24T08:07:40;51953.84;;;-146.96;58.74
39105;BME280;46464;51.154;13.812;2023-04-24T08:10:11;51972.16;;;-146.96;58.12
39105;BME280;46464;51.154;13.812;2023-04-24T08:12:38;51982.34;;;-146.96;59.00
39105;BME280;46464;51.154;13.812;2023-04-24T08:15:05;51982.34;;;-146.96;59.00
39105;BME280;46464;51.154;13.812;2023-04-24T08:17:34;51927.41;;;-146.96;58.40
39105;BME280;46464;51.154;13.812;2023-04-24T08:20:02;51992.50;;;-146.96;58.06
39105;BME280;46464;51.154;13.812;2023-04-24T08:22:30;51945.72;;;-146.96;59.44
39105;BME280;46464;51.154;13.812;2023-04-24T08:25:00;51962.00;;;-146.96;59.24
39105;BME280;46464;51.154;13.812;2023-04-24T08:27:27;51968.09;;;-146.96;57.85
39105;BME280;46464;51.154;13.812;2023-04-24T08:29:54;51953.84;;;-146.96;58.06
39105;BME280;46464;51.154;13.812;2023-04-24T08:32:20;51945.72;;;-146.96;57.39
39105;BME280;46464;51.154;13.812;2023-04-24T08:34:47;51994.53;;;-146.96;56.68
39105;BME280;46464;51.154;13.812;2023-04-24T08:37:15;51980.31;;;-146.96;57.04
39105;BME280;46464;51.154;13.812;2023-04-24T08:39:41;51955.88;;;-146.96;58.58
39105;BME280;46464;51.154;13.812;2023-04-24T08:42:08;51988.44;;;-146.96;57.78
39105;BME280;46464;51.154;13.812;2023-04-24T08:44:35;51966.06;;;-146.96;58.49
39105;BME280;46464;51.154;13.812;2023-04-24T08:47:02;51990.47;;;-146.96;57.68
39105;BME280;46464;51.154;13.812;2023-04-24T08:49:29;51988.44;;;-146.96;57.58
39105;BME280;46464;51.154;13.812;2023-04-24T08:51:55;51990.47;;;-146.96;58.01
39105;BME280;46464;51.154;13.812;2023-04-24T08:54:22;51980.31;;;-146.96;57.50
39105;BME280;46464;51.154;13.812;2023-04-24T08:56:50;51990.47;;;-146.96;57.75
39105;BME280;46464;51.154;13.812;2023-04-24T08:59:16;51996.59;;;-146.96;56.91
39105;BME280;46464;51.154;13.812;2023-04-24T09:01:45;51968.09;;;-146.96;56.91
39105;BME280;46464;51.154;13.812;2023-04-24T09:04:14;51972.16;;;-146.96;55.91
39105;BME280;46464;51.154;13.812;2023-04-24T09:06:42;51955.88;;;-146.96;56.68
39105;BME280;46464;51.154;13.812;2023-04-24T09:09:09;51947.75;;;-146.96;56.97
39105;BME280;46464;51.154;13.812;2023-04-24T09:11:37;51990.47;;;-146.96;54.91
39105;BME280;46464;51.154;13.812;2023-04-24T09:14:04;51935.53;;;-146.96;53.42
39105;BME280;46464;51.154;13.812;2023-04-24T09:16:31;51923.34;;;-146.96;53.82
39105;BME280;46464;51.154;13.812;2023-04-24T09:19:02;51915.19;;;-146.96;53.55
39105;BME280;46464;51.154;13.812;2023-04-24T09:21:34;51957.91;;;-146.96;53.86
39105;BME280;46464;51.154;13.812;2023-04-24T09:24:03;51917.22;;;-146.96;52.85
39105;BME280;46464;51.154;13.812;2023-04-24T09:26:31;51959.97;;;-146.96;52.95
39105;BME280;46464;51.154;13.812;2023-04-24T09:28:59;51947.75;;;-146.96;52.68
39105;BME280;46464;51.154;13.812;2023-04-24T09:31:27;51933.50;;;-146.96;53.45
39105;BME280;46464;51.154;13.812;2023-04-24T09:33:58;51945.72;;;-146.96;53.03
39105;BME280;46464;51.154;13.812;2023-04-24T09:36:32;51947.75;;;-146.96;54.03
39105;BME280;46464;51.154;13.812;2023-04-24T09:39:07;51962.00;;;-146.96;54.93
39105;BME280;46464;51.154;13.812;2023-04-24T09:41:35;51982.34;;;-146.96;54.27
39105;BME280;46464;51.154;13.812;2023-04-24T09:44:29;51976.22;;;-146.96;54.97
39105;BME280;46464;51.154;13.812;2023-04-24T09:46:57;51988.44;;;-146.96;54.46
39105;BME280;46464;51.154;13.812;2023-04-24T09:49:29;51992.50;;;-146.96;54.24
39105;BME280;46464;51.154;13.812;2023-04-24T09:52:04;51959.97;;;-146.96;54.43
39105;BME280;46464;51.154;13.812;2023-04-24T09:54:31;51949.78;;;-146.96;54.50
39105;BME280;46464;51.154;13.812;2023-04-24T09:56:57;51945.72;;;-146.96;54.79
39105;BME280;46464;51.154;13.812;2023-04-24T09:59:26;51939.63;;;-146.96;52.74
39105;BME280;46464;51.154;13.812;2023-04-24T10:01:52;51986.41;;;-146.96;53.96
39105;BME280;46464;51.154;13.812;2023-04-24T10:04:21;51933.50;;;-146.96;54.00
39105;BME280;46464;51.154;13.812;2023-04-24T10:06:50;51959.97;;;-146.96;53.53
39105;BME280;46464;51.154;13.812;2023-04-24T10:09:19;51957.91;;;-146.96;54.49
39105;BME280;46464;51.154;13.812;2023-04-24T10:11:47;51935.53;;;-146.96;55.15
39105;BME280;46464;51.154;13.812;2023-04-24T10:14:16;51959.97;;;-146.96;53.71
39105;BME280;46464;51.154;13.812;2023-04-24T10:16:44;51974.19;;;-146.96;53.52
39105;BME280;46464;51.154;13.812;2023-04-24T10:19:14;51949.78;;;-146.96;51.79
39105;BME280;46464;51.154;13.812;2023-04-24T10:21:42;51909.09;;;-146.96;52.74
39105;BME280;46464;51.154;13.812;2023-04-24T10:24:09;51957.91;;;-146.96;52.69
39105;BME280;46464;51.154;13.812;2023-04-24T10:26:36;51974.19;;;-146.96;52.52
39105;BME280;46464;51.154;13.812;2023-04-24T10:29:04;51941.66;;;-146.96;52.46
39105;BME280;46464;51.154;13.812;2023-04-24T10:31:36;51931.47;;;-146.96;53.38
39105;BME280;46464;51.154;13.812;2023-04-24T10:34:05;51923.34;;;-146.96;52.98
39105;BME280;46464;51.154;13.812;2023-04-24T10:36:33;51933.50;;;-146.96;50.41
39105;BME280;46464;51.154;13.812;2023-04-24T10:39:02;51943.69;;;-146.96;52.61
39105;BME280;46464;51.154;13.812;2023-04-24T10:41:30;51919.28;;;-146.96;50.71
39105;BME280;46464;51.154;13.812;2023-04-24T10:44:13;51949.78;;;-146.96;51.22
39105;BME280;46464;51.154;13.812;2023-04-24T10:46:44;51959.97;;;-146.96;52.41
39105;BME280;46464;51.154;13.812;2023-04-24T10:49:11;51917.22;;;-146.96;53.80
39105;BME280;46464;51.154;13.812;2023-04-24T10:51:50;51870.44;;;-146.96;53.83
39105;BME280;46464;51.154;13.812;2023-04-24T10:54:27;51876.53;;;-146.96;53.14
39105;BME280;46464;51.154;13.812;2023-04-24T10:59:47;51909.09;;;-146.96;49.36
39105;BME280;46464;51.154;13.812;2023-04-24T11:02:15;51864.34;;;-146.96;51.10
39105;BME280;46464;51.154;13.812;2023-04-24T11:04:42;51878.56;;;-146.96;52.00
39105;BME280;46464;51.154;13.812;2023-04-24T11:07:12;51876.53;;;-146.96;50.33
39105;BME280;46464;51.154;13.812;2023-04-24T11:09:41;51903.00;;;-146.96;50.77
39105;BME280;46464;51.154;13.812;2023-04-24T11:12:10;51880.63;;;-146.96;51.53
39105;BME280;46464;51.154;13.812;2023-04-24T11:17:36;51841.97;;;-146.96;50.07
39105;BME280;46464;51.154;13.812;2023-04-24T11:20:15;51882.66;;;-146.96;49.00
39105;BME280;46464;51.154;13.812;2023-04-24T11:22:54;51886.72;;;-146.96;51.29
39105;BME280;46464;51.154;13.812;2023-04-24T11:25:21;51900.97;;;-146.96;50.24
39105;BME280;46464;51.154;13.812;2023-04-24T11:28:03;51911.13;;;-146.96;50.61
39105;BME280;46464;51.154;13.812;2023-04-24T11:30:31;51927.41;;;-146.96;50.74
39105;BME280;46464;51.154;13.812;2023-04-24T11:33:03;51862.31;;;-146.96;51.86
39105;BME280;46464;51.154;13.812;2023-04-24T11:35:35;51903.00;;;-146.96;51.21
39105;BME280;46464;51.154;13.812;2023-04-24T11:38:04;51921.31;;;-146.96;51.18
39105;BME280;46464;51.154;13.812;2023-04-24T11:40:34;51919.28;;;-146.96;52.05
39105;BME280;46464;51.154;13.812;2023-04-24T11:43:00;51931.47;;;-146.96;52.37
39105;BME280;46464;51.154;13.812;2023-04-24T11:45:29;51957.91;;;-146.96;51.08
39105;BME280;46464;51.154;13.812;2023-04-24T11:47:57;51937.56;;;-146.96;51.66
39105;BME280;46464;51.154;13.812;2023-04-24T11:50:26;51919.28;;;-146.96;51.66
39105;BME280;46464;51.154;13.812;2023-04-24T11:52:54;51974.19;;;-146.96;51.21
39105;BME280;46464;51.154;13.812;2023-04-24T11:57:51;51931.47;;;-146.96;52.88
39105;BME280;46464;51.154;13.812;2023-04-24T12:00:21;51959.97;;;-146.96;52.67
39105;BME280;46464;51.154;13.812;2023-04-24T12:02:49;51951.81;;;-146.96;52.81
39105;BME280;46464;51.154;13.812;2023-04-24T12:05:26;51919.28;;;-146.96;51.73
39105;BME280;46464;51.154;13.812;2023-04-24T12:07:54;51892.81;;;-146.96;50.82
39105;BME280;46464;51.154;13.812;2023-04-24T12:10:21;51911.13;;;-146.96;51.41
39105;BME280;46464;51.154;13.812;2023-04-24T12:12:48;51941.66;;;-146.96;50.61
39105;BME280;46464;51.154;13.812;2023-04-24T12:15:18;51917.22;;;-146.96;52.09
39105;BME280;46464;51.154;13.812;2023-04-24T12:17:45;51955.88;;;-146.96;53.00
39105;BME280;46464;51.154;13.812;2023-04-24T12:20:13;51966.06;;;-146.96;52.97
39105;BME280;46464;51.154;13.812;2023-04-24T12:22:48;51968.09;;;-146.96;54.35
39105;BME280;46464;51.154;13.812;2023-04-24T12:25:18;51953.84;;;-146.96;54.56
39105;BME280;46464;51.154;13.812;2023-04-24T12:27:47;51962.00;;;-146.96;52.68
39105;BME280;46464;51.154;13.812;2023-04-24T12:30:18;51986.41;;;-146.96;52.16
39105;BME280;46464;51.154;13.812;2023-04-24T12:32:47;51935.53;;;-146.96;51.63
39105;BME280;46464;51.154;13.812;2023-04-24T12:35:19;51909.09;;;-146.96;51.06
39105;BME280;46464;51.154;13.812;2023-04-24T12:37:47;51890.78;;;-146.96;49.07
39105;BME280;46464;51.154;13.812;2023-04-24T12:40:14;51900.97;;;-146.96;47.36